Time;durP1;ratioP1;P1;durP2;ratioP2;P2;SDS_P1;SDS_P2;PMS_P1;PMS_P2;Temp;Humidity;BMP_temperature;BMP_pressure;BME280_temperature;BME280_humidity;BME280_pressure;Samples;Min_cycle;Max_cycle;Signal;HPM_P1;HPM_P2
2024/02/15 00:01:42;;;;;;;2.93;1.57;;;;;;;10.87;100.00;98640.91;5082027;28;20237;-79
2024/02/15 00:04:10;;;;;;;2.30;1.80;;;;;;;10.85;100.00;98644.59;5082078;28;20207;-79
2024/02/15 00:06:37;;;;;;;1.50;1.40;;;;;;;10.85;100.00;98641.94;5082078;28;20207;-78
2024/02/15 00:09:05;;;;;;;2.23;1.50;;;;;;;10.85;100.00;98639.31;5082011;28;20230;-79
2024/02/15 00:11:32;;;;;;;2.43;1.60;;;;;;;10.83;100.00;98633.28;5081477;28;20235;-80
2024/02/15 00:13:58;;;;;;;2.13;1.40;;;;;;;10.82;100.00;98634.22;5076692;28;20234;-80
2024/02/15 00:16:27;;;;;;;1.77;1.40;;;;;;;10.84;100.00;98637.63;5078670;28;20289;-80
2024/02/15 00:18:55;;;;;;;2.33;1.27;;;;;;;10.85;100.00;98639.31;5073746;28;20205;-77
2024/02/15 00:21:21;;;;;;;1.93;1.40;;;;;;;10.85;100.00;98634.00;5074941;28;20225;-80
2024/02/15 00:23:48;;;;;;;2.10;1.20;;;;;;;10.89;100.00;98635.53;5074377;28;20215;-78
2024/02/15 00:26:16;;;;;;;1.80;1.40;;;;;;;10.85;100.00;98639.31;5074461;28;20203;-80
2024/02/15 00:28:42;;;;;;;3.37;1.50;;;;;;;10.87;100.00;98638.28;5073572;28;20311;-78
2024/02/15 00:31:09;;;;;;;1.67;1.37;;;;;;;10.91;100.00;98636.28;5074522;28;20703;-80
2024/02/15 00:33:36;;;;;;;1.87;1.27;;;;;;;10.93;100.00;98635.25;5073839;28;20207;-78
2024/02/15 00:36:03;;;;;;;1.50;1.20;;;;;;;10.91;100.00;98636.28;5074618;28;20263;-80
2024/02/15 00:38:30;;;;;;;1.40;1.10;;;;;;;10.89;100.00;98631.06;5074429;28;20211;-81
2024/02/15 00:40:58;;;;;;;1.97;1.43;;;;;;;10.86;100.00;98627.78;5074253;28;20265;-78
2024/02/15 00:43:28;;;;;;;2.00;1.20;;;;;;;10.77;100.00;98631.00;5073750;28;20211;-78
2024/02/15 00:45:54;;;;;;;2.80;1.67;;;;;;;10.72;100.00;98628.66;5073362;28;20218;-78
2024/02/15 00:48:21;;;;;;;1.50;1.40;;;;;;;10.61;100.00;98625.81;5074335;28;20208;-80
2024/02/15 00:50:48;;;;;;;1.63;1.30;;;;;;;10.53;100.00;98622.78;5073906;28;20257;-80
2024/02/15 00:53:16;;;;;;;3.17;1.60;;;;;;;10.38;100.00;98625.50;5074757;28;20229;-78
2024/02/15 00:55:43;;;;;;;1.83;1.20;;;;;;;10.34;100.00;98626.66;5080270;28;20207;-78
2024/02/15 00:58:09;;;;;;;1.53;1.20;;;;;;;10.32;100.00;98628.50;5079537;28;20226;-78
2024/02/15 01:00:38;;;;;;;1.83;1.43;;;;;;;10.27;100.00;98625.31;5080936;28;20212;-78
2024/02/15 01:03:04;;;;;;;2.90;1.40;;;;;;;10.26;100.00;98620.97;5081128;28;20504;-78
2024/02/15 01:05:31;;;;;;;2.17;1.40;;;;;;;10.31;100.00;98614.47;5081274;28;20214;-78
2024/02/15 01:07:58;;;;;;;2.87;1.60;;;;;;;10.35;100.00;98617.78;5080500;28;20236;-78
2024/02/15 01:10:24;;;;;;;2.13;1.60;;;;;;;10.36;100.00;98614.19;5080691;28;20245;-78
2024/02/15 01:12:51;;;;;;;2.00;1.37;;;;;;;10.38;100.00;98607.88;5080991;28;20235;-78
2024/02/15 01:15:19;;;;;;;1.60;1.27;;;;;;;10.38;100.00;98612.28;5080301;28;20212;-80
2024/02/15 01:17:47;;;;;;;3.73;1.50;;;;;;;10.39;100.00;98608.72;5079328;28;20296;-80
2024/02/15 01:20:14;;;;;;;2.80;1.50;;;;;;;10.36;100.00;98611.53;5079997;28;20215;-79
2024/02/15 01:22:40;;;;;;;1.90;1.53;;;;;;;10.34;100.00;98608.16;5080407;28;20232;-80
2024/02/15 01:25:08;;;;;;;2.63;1.50;;;;;;;10.30;100.00;98611.91;5076157;28;20677;-80
2024/02/15 01:27:35;;;;;;;4.20;2.30;;;;;;;10.20;100.00;98608.13;5074345;28;20212;-78
2024/02/15 01:30:04;;;;;;;2.57;1.10;;;;;;;10.10;100.00;98613.09;5073169;28;20372;-79
2024/02/15 01:32:30;;;;;;;2.57;1.37;;;;;;;10.01;100.00;98610.13;5072023;28;20297;-79
2024/02/15 01:34:58;;;;;;;1.77;1.30;;;;;;;9.95;100.00;98611.34;5081979;28;20402;-78
2024/02/15 01:37:25;;;;;;;1.83;1.33;;;;;;;9.88;100.00;98611.78;5081516;28;20592;-78
2024/02/15 01:39:52;;;;;;;2.47;1.20;;;;;;;9.77;100.00;98614.22;5082048;28;20216;-78
2024/02/15 01:42:19;;;;;;;1.53;1.13;;;;;;;9.68;100.00;98626.16;5082154;28;20230;-78
2024/02/15 01:44:47;;;;;;;1.97;1.10;;;;;;;9.59;100.00;98620.56;5081859;28;20209;-78
2024/02/15 01:47:15;;;;;;;2.23;1.43;;;;;;;9.50;100.00;98627.22;5082775;28;20209;-78
2024/02/15 01:49:42;;;;;;;3.60;1.40;;;;;;;9.45;100.00;98623.13;5082267;28;20235;-81
2024/02/15 01:52:10;;;;;;;2.40;1.30;;;;;;;9.43;100.00;98622.38;5074486;28;20277;-80
2024/02/15 01:54:38;;;;;;;3.23;1.33;;;;;;;9.40;100.00;98620.78;5075318;28;20291;-80
2024/02/15 01:57:05;;;;;;;1.43;1.27;;;;;;;9.37;100.00;98620.94;5079750;28;20225;-78
2024/02/15 01:59:32;;;;;;;2.73;1.20;;;;;;;9.32;100.00;98627.41;5079456;28;20218;-78
2024/02/15 02:01:59;;;;;;;3.00;1.60;;;;;;;9.25;100.00;98620.78;5079758;28;20235;-78
2024/02/15 02:04:26;;;;;;;2.50;1.10;;;;;;;9.15;100.00;98623.09;5079586;28;20214;-78
2024/02/15 02:06:55;;;;;;;1.40;1.10;;;;;;;9.09;100.00;98612.88;5079753;28;20596;-78
2024/02/15 02:09:23;;;;;;;1.27;1.17;;;;;;;8.99;100.00;98610.84;5079221;28;20246;-78
2024/02/15 02:11:50;;;;;;;3.67;1.30;;;;;;;8.97;100.00;98612.69;5084569;28;20242;-78
2024/02/15 02:14:17;;;;;;;1.90;1.27;;;;;;;8.90;100.00;98611.34;5085770;28;20696;-78
2024/02/15 02:16:46;;;;;;;3.00;1.30;;;;;;;8.83;100.00;98612.59;5086028;28;20354;-78
2024/02/15 02:19:13;;;;;;;2.40;1.30;;;;;;;8.79;100.00;98605.78;5084790;28;20214;-78
2024/02/15 02:21:40;;;;;;;1.57;1.20;;;;;;;8.76;100.00;98605.97;5085705;28;20229;-78
2024/02/15 02:24:18;;;;;;;3.70;1.60;;;;;;;8.74;100.00;98607.81;5084862;28;20257;-78
2024/02/15 02:26:46;;;;;;;2.67;1.07;;;;;;;8.82;100.00;98605.63;5084482;28;20214;-78
2024/02/15 02:29:12;;;;;;;1.83;1.17;;;;;;;8.93;100.00;98603.28;5085657;28;20213;-78
2024/02/15 02:31:40;;;;;;;2.70;1.40;;;;;;;9.01;100.00;98596.63;5085361;28;20227;-78
2024/02/15 02:34:07;;;;;;;2.53;1.40;;;;;;;9.11;100.00;98604.88;5084836;28;20206;-78
2024/02/15 02:36:34;;;;;;;1.77;1.20;;;;;;;9.22;100.00;98605.13;5084668;28;20237;-78
2024/02/15 02:39:01;;;;;;;3.60;1.80;;;;;;;9.31;100.00;98604.63;5084058;28;20685;-78
2024/02/15 02:41:28;;;;;;;1.50;1.20;;;;;;;9.37;100.00;98604.28;5084779;28;20237;-78
2024/02/15 02:43:57;;;;;;;3.23;1.20;;;;;;;9.41;100.00;98603.13;5085137;28;20217;-78
2024/02/15 02:46:23;;;;;;;1.77;1.50;;;;;;;9.45;100.00;98609.94;5085227;28;20238;-79
2024/02/15 02:48:50;;;;;;;3.83;1.40;;;;;;;9.46;100.00;98606.38;5085149;28;20278;-79
2024/02/15 02:51:17;;;;;;;2.10;1.30;;;;;;;9.48;100.00;98609.78;5084124;28;20230;-79
2024/02/15 02:53:43;;;;;;;3.00;1.50;;;;;;;9.43;100.00;98610.03;5084002;28;20208;-79
2024/02/15 02:56:10;;;;;;;1.80;1.30;;;;;;;9.38;100.00;98611.25;5083379;28;20207;-79
2024/02/15 02:58:36;;;;;;;1.50;1.17;;;;;;;9.28;100.00;98607.41;5085008;28;20480;-79
2024/02/15 03:01:04;;;;;;;2.33;1.20;;;;;;;9.25;100.00;98604.97;5083885;28;20213;-79
2024/02/15 03:03:31;;;;;;;1.30;1.20;;;;;;;9.20;100.00;98607.00;5083149;28;20210;-79
2024/02/15 03:05:58;;;;;;;2.73;1.57;;;;;;;9.17;100.00;98607.19;5082742;28;20241;-79
2024/02/15 03:08:24;;;;;;;2.70;1.30;;;;;;;9.15;100.00;98606.41;5081055;28;20305;-78
2024/02/15 03:10:51;;;;;;;2.13;1.23;;;;;;;9.09;100.00;98604.97;5079907;28;20642;-78
2024/02/15 03:13:19;;;;;;;1.53;1.43;;;;;;;9.06;100.00;98609.56;5081251;28;20285;-80
2024/02/15 03:15:47;;;;;;;1.47;1.10;;;;;;;9.06;100.00;98609.56;5080313;28;20230;-78
2024/02/15 03:18:16;;;;;;;4.87;1.30;;;;;;;9.05;100.00;98599.97;5080484;28;20208;-78
2024/02/15 03:20:43;;;;;;;2.10;1.30;;;;;;;9.08;100.00;98607.69;5080537;28;20206;-79
2024/02/15 03:23:09;;;;;;;2.27;1.40;;;;;;;9.13;100.00;98605.66;5079188;28;20233;-80
2024/02/15 03:25:37;;;;;;;2.00;1.57;;;;;;;9.15;100.00;98598.50;5074448;28;20204;-78
2024/02/15 03:28:04;;;;;;;2.23;1.30;;;;;;;9.15;100.00;98598.50;5073442;28;20208;-78
2024/02/15 03:30:33;;;;;;;2.03;1.40;;;;;;;9.22;100.00;98599.84;5072941;28;20236;-78
2024/02/15 03:33:00;;;;;;;1.80;1.30;;;;;;;9.26;100.00;98598.75;5074486;28;20253;-80
2024/02/15 03:35:31;;;;;;;2.30;1.57;;;;;;;9.30;100.00;98602.91;5073923;28;20214;-78
2024/02/15 03:37:58;;;;;;;1.70;1.10;;;;;;;9.26;100.00;98596.97;5073271;28;20223;-78
2024/02/15 03:40:26;;;;;;;2.43;1.50;;;;;;;9.29;100.00;98601.19;5074389;28;20210;-80
2024/02/15 03:42:53;;;;;;;3.00;1.37;;;;;;;9.29;100.00;98588.00;5075232;28;20732;-79
2024/02/15 03:45:20;;;;;;;2.40;1.50;;;;;;;9.28;100.00;98602.13;5074362;28;20216;-80
2024/02/15 03:47:46;;;;;;;2.67;1.37;;;;;;;9.36;100.00;98598.13;5073237;28;20243;-79
2024/02/15 03:50:14;;;;;;;3.03;1.70;;;;;;;9.38;100.00;98596.28;5073438;28;20616;-77
2024/02/15 03:52:43;;;;;;;1.93;1.20;;;;;;;9.44;100.00;98595.06;5074582;28;20269;-80
2024/02/15 03:55:10;;;;;;;1.67;1.33;;;;;;;9.47;100.00;98593.09;5073553;28;20211;-79
2024/02/15 03:57:40;;;;;;;2.23;1.20;;;;;;;9.55;100.00;98595.28;5072942;28;20207;-77
2024/02/15 04:00:08;;;;;;;1.60;1.30;;;;;;;9.55;100.00;98600.56;5073317;28;20302;-80
2024/02/15 04:02:35;;;;;;;2.33;1.57;;;;;;;9.56;100.00;98595.22;5073554;28;20230;-79
2024/02/15 04:05:04;;;;;;;2.17;1.30;;;;;;;9.46;100.00;98598.44;5074907;28;20208;-78
2024/02/15 04:07:32;;;;;;;2.23;1.33;;;;;;;9.47;100.00;98605.41;5079730;28;20305;-79
2024/02/15 04:10:00;;;;;;;2.57;1.33;;;;;;;9.50;100.00;98597.34;5079579;28;20209;-78
2024/02/15 04:12:27;;;;;;;1.47;1.10;;;;;;;9.52;100.00;98595.47;5079807;28;20240;-78
2024/02/15 04:14:59;;;;;;;2.40;1.30;;;;;;;9.52;100.00;98598.97;5079452;28;20219;-78
2024/02/15 04:17:25;;;;;;;1.20;1.00;;;;;;;9.53;100.00;98594.50;5078293;28;20239;-78
2024/02/15 04:19:53;;;;;;;2.27;1.30;;;;;;;9.52;100.00;98595.47;5079438;28;20217;-78
2024/02/15 04:22:20;;;;;;;2.03;1.80;;;;;;;9.60;100.00;98595.88;5079358;28;20318;-78
2024/02/15 04:24:47;;;;;;;1.57;1.30;;;;;;;9.59;100.00;98591.53;5079095;28;20247;-78
2024/02/15 04:27:15;;;;;;;2.00;1.10;;;;;;;9.59;100.00;98592.38;5079594;28;20211;-78
2024/02/15 04:29:44;;;;;;;3.30;1.50;;;;;;;9.56;100.00;98599.63;5079262;28;20205;-78
2024/02/15 04:32:11;;;;;;;5.23;1.60;;;;;;;9.49;100.00;98598.28;5078747;28;20717;-78
2024/02/15 04:34:38;;;;;;;3.27;2.00;;;;;;;9.53;100.00;98594.50;5079181;28;20277;-78
2024/02/15 04:37:07;;;;;;;1.83;1.33;;;;;;;9.46;100.00;98590.53;5079452;28;20623;-78
2024/02/15 04:39:33;;;;;;;3.13;1.40;;;;;;;9.48;100.00;98591.31;5078883;28;20222;-78
2024/02/15 04:42:00;;;;;;;1.83;1.40;;;;;;;9.59;100.00;98588.88;5078656;28;20231;-78
2024/02/15 04:44:28;;;;;;;2.23;1.40;;;;;;;9.59;100.00;98580.97;5079475;28;20211;-78
2024/02/15 04:46:54;;;;;;;4.70;1.57;;;;;;;9.65;100.00;98583.25;5079195;28;20226;-78
2024/02/15 04:49:22;;;;;;;3.50;1.50;;;;;;;9.68;100.00;98581.28;5079202;28;20226;-78
2024/02/15 04:51:49;;;;;;;1.37;1.27;;;;;;;9.72;100.00;98571.41;5080554;28;20236;-78
2024/02/15 04:54:15;;;;;;;1.83;1.30;;;;;;;9.71;100.00;98567.91;5080566;28;20579;-78
2024/02/15 04:56:42;;;;;;;1.60;1.50;;;;;;;9.74;100.00;98575.63;5080550;28;20220;-78
2024/02/15 04:59:15;;;;;;;3.10;1.23;;;;;;;9.71;100.00;98567.91;5079280;28;20210;-78
2024/02/15 05:01:43;;;;;;;2.63;1.30;;;;;;;9.68;100.00;98567.25;5079331;28;20687;-80
2024/02/15 05:04:11;;;;;;;2.20;1.13;;;;;;;9.64;100.00;98566.59;5080667;28;20216;-79
2024/02/15 05:06:38;;;;;;;2.30;1.33;;;;;;;9.66;100.00;98567.34;5080789;28;20221;-79
2024/02/15 05:09:07;;;;;;;1.40;1.27;;;;;;;9.64;100.00;98569.22;5079918;28;20200;-78
2024/02/15 05:11:36;;;;;;;2.87;1.63;;;;;;;9.60;100.00;98574.78;5081885;28;20236;-78
2024/02/15 05:14:04;;;;;;;1.73;1.43;;;;;;;9.60;100.00;98572.13;5081029;28;20211;-79
2024/02/15 05:16:32;;;;;;;2.57;1.40;;;;;;;9.59;100.00;98568.63;5081489;28;20216;-79
2024/02/15 05:19:00;;;;;;;2.93;1.47;;;;;;;9.59;100.00;98575.69;5080373;28;20267;-79
2024/02/15 05:21:26;;;;;;;1.87;1.30;;;;;;;9.60;100.00;98577.41;5081088;28;20231;-79
2024/02/15 05:23:53;;;;;;;1.60;1.20;;;;;;;9.61;100.00;98587.03;5080423;28;20214;-80
2024/02/15 05:26:23;;;;;;;1.67;1.30;;;;;;;9.65;100.00;98576.19;5080641;28;20344;-79
2024/02/15 05:28:49;;;;;;;3.77;1.40;;;;;;;9.65;100.00;98570.91;5080473;28;20314;-79
2024/02/15 05:31:20;;;;;;;4.90;1.40;;;;;;;9.65;100.00;98572.69;5082620;28;20230;-79
2024/02/15 05:33:47;;;;;;;2.37;1.60;;;;;;;9.65;100.00;98568.28;5083522;28;20188;-79
2024/02/15 05:36:17;;;;;;;2.60;1.37;;;;;;;9.68;100.00;98569.88;5081110;28;20211;-79
2024/02/15 05:38:45;;;;;;;2.90;1.77;;;;;;;9.65;100.00;98568.28;5083438;28;20301;-78
2024/02/15 05:41:11;;;;;;;2.17;1.70;;;;;;;9.70;100.00;98570.63;5079586;28;20299;-78
2024/02/15 05:43:38;;;;;;;3.53;1.70;;;;;;;9.72;100.00;98563.50;5083196;28;20211;-78
2024/02/15 05:46:06;;;;;;;4.33;1.70;;;;;;;9.72;100.00;98561.69;5082734;28;20209;-80
2024/02/15 05:48:34;;;;;;;3.00;1.60;;;;;;;9.73;100.00;98567.84;5082277;28;20224;-78
2024/02/15 05:51:01;;;;;;;2.77;1.77;;;;;;;9.76;100.00;98565.00;5080018;28;20234;-79
2024/02/15 05:53:30;;;;;;;2.43;1.70;;;;;;;9.74;100.00;98565.09;5083576;28;20208;-78
2024/02/15 05:55:57;;;;;;;3.10;1.87;;;;;;;9.75;100.00;98568.59;5084889;28;20267;-79
2024/02/15 05:58:24;;;;;;;2.40;1.67;;;;;;;9.75;100.00;98566.81;5083913;28;20568;-78
2024/02/15 06:00:50;;;;;;;2.77;2.00;;;;;;;9.75;100.00;98569.44;5084560;28;20208;-78
2024/02/15 06:03:17;;;;;;;3.57;1.93;;;;;;;9.73;100.00;98567.84;5084113;28;20235;-79
2024/02/15 06:05:44;;;;;;;2.70;2.00;;;;;;;9.73;100.00;98575.75;5084852;28;20219;-79
2024/02/15 06:08:12;;;;;;;3.50;1.87;;;;;;;9.76;100.00;98567.63;5083362;28;20294;-78
2024/02/15 06:10:43;;;;;;;4.13;2.00;;;;;;;9.75;100.00;98576.50;5083600;28;20596;-79
2024/02/15 06:13:09;;;;;;;3.53;2.03;;;;;;;9.74;100.00;98567.72;5083618;28;20229;-79
2024/02/15 06:15:36;;;;;;;3.93;2.30;;;;;;;9.78;100.00;98568.41;5083848;28;20208;-79
2024/02/15 06:18:08;;;;;;;3.83;1.87;;;;;;;9.76;100.00;98570.28;5082451;28;20210;-79
2024/02/15 06:20:35;;;;;;;3.10;2.10;;;;;;;9.79;100.00;98570.13;5082768;28;20222;-78
2024/02/15 06:23:03;;;;;;;2.53;1.83;;;;;;;9.74;100.00;98570.38;5082861;28;20275;-78
2024/02/15 06:25:29;;;;;;;2.47;2.00;;;;;;;9.75;100.00;98571.22;5083033;28;20314;-79
2024/02/15 06:28:01;;;;;;;3.53;2.40;;;;;;;9.74;100.00;98562.44;5082538;28;20218;-79
2024/02/15 06:41:33;;;;;;;3.07;2.33;;;;;;;9.72;100.00;98566.13;5080920;28;20245;-79
2024/02/15 06:44:01;;;;;;;3.00;2.30;;;;;;;9.72;100.00;98559.06;5082322;28;20220;-79
2024/02/15 06:46:27;;;;;;;3.40;2.33;;;;;;;9.71;100.00;98564.41;5082058;28;20277;-78
2024/02/15 06:48:54;;;;;;;5.30;2.50;;;;;;;9.61;100.00;98565.91;5082004;28;20818;-79
2024/02/15 06:51:21;;;;;;;3.03;2.30;;;;;;;9.52;100.00;98566.44;5082057;28;20560;-78
2024/02/15 06:53:47;;;;;;;4.47;2.50;;;;;;;9.46;100.00;98572.94;5081966;28;20579;-78
2024/02/15 06:56:14;;;;;;;3.53;2.10;;;;;;;9.49;100.00;98571.91;5081995;28;20587;-78
2024/02/15 06:58:41;;;;;;;3.70;1.97;;;;;;;9.50;100.00;98563.91;5081660;28;20213;-78
2024/02/15 07:01:09;;;;;;;4.80;2.20;;;;;;;9.54;100.00;98567.22;5081317;28;20203;-78
2024/02/15 07:03:35;;;;;;;2.47;1.90;;;;;;;9.57;100.00;98567.03;5081387;28;20205;-79
2024/02/15 07:06:03;;;;;;;5.43;2.53;;;;;;;9.64;100.00;98561.31;5081830;28;20220;-78
2024/02/15 07:08:29;;;;;;;6.97;2.10;;;;;;;9.72;100.00;98574.06;5081652;28;20256;-79
2024/02/15 07:10:56;;;;;;;3.40;1.80;;;;;;;9.77;100.00;98571.97;5080163;28;20223;-78
2024/02/15 07:13:22;;;;;;;2.70;1.60;;;;;;;9.89;100.00;98571.25;5080817;28;20578;-79
2024/02/15 07:15:49;;;;;;;3.10;1.90;;;;;;;9.90;100.00;98573.81;5081180;28;20211;-79
2024/02/15 07:18:18;;;;;;;3.50;1.90;;;;;;;9.97;100.00;98569.84;5081470;28;20211;-78
2024/02/15 07:20:46;;;;;;;2.20;2.00;;;;;;;10.04;100.00;98565.94;5081327;28;20210;-78
2024/02/15 07:23:13;;;;;;;2.53;1.97;;;;;;;10.05;100.00;98562.38;5080831;28;20236;-78
2024/02/15 07:25:40;;;;;;;3.20;1.70;;;;;;;10.15;100.00;98565.31;5080461;28;20217;-78
2024/02/15 07:28:08;;;;;;;2.87;1.83;;;;;;;10.19;100.00;98558.88;5079797;28;20211;-78
2024/02/15 07:30:34;;;;;;;2.67;1.83;;;;;;;10.21;100.00;98554.38;5075694;28;20216;-78
2024/02/15 07:33:01;;;;;;;2.80;1.93;;;;;;;10.23;100.00;98549.84;5074805;28;20236;-78
2024/02/15 07:35:30;;;;;;;3.13;2.00;;;;;;;10.19;100.00;98532.47;5073902;28;20220;-78
2024/02/15 07:37:58;;;;;;;2.40;2.00;;;;;;;10.17;100.00;98539.66;5079956;28;20330;-78
2024/02/15 07:40:28;;;;;;;6.27;2.00;;;;;;;10.17;100.00;98539.66;5076887;28;20256;-78
2024/02/15 07:42:57;;;;;;;2.90;1.90;;;;;;;10.12;100.00;98529.38;5074142;28;20237;-78
2024/02/15 07:45:23;;;;;;;3.10;2.00;;;;;;;10.16;100.00;98527.38;5073224;28;20215;-78
2024/02/15 07:47:50;;;;;;;3.03;2.10;;;;;;;10.19;100.00;98532.47;5073980;28;20211;-78
2024/02/15 07:50:20;;;;;;;3.03;1.87;;;;;;;10.24;100.00;98530.41;5072892;28;20282;-77
2024/02/15 07:52:48;;;;;;;5.73;2.43;;;;;;;10.39;100.00;98529.47;5073912;28;20238;-77
2024/02/15 07:55:15;;;;;;;5.30;2.60;;;;;;;10.52;100.00;98528.59;5074032;28;20624;-77
2024/02/15 07:57:42;;;;;;;4.13;2.00;;;;;;;10.59;100.00;98529.06;5074641;28;20577;-77
2024/02/15 08:00:11;;;;;;;4.30;2.20;;;;;;;10.70;100.00;98523.94;5074151;28;20217;-77
2024/02/15 08:02:40;;;;;;;4.13;2.20;;;;;;;10.84;100.00;98515.97;5074168;28;20282;-77
2024/02/15 08:05:09;;;;;;;4.07;2.30;;;;;;;11.02;100.00;98515.63;5075841;28;20589;-77
2024/02/15 08:07:37;;;;;;;3.00;2.17;;;;;;;11.06;100.00;98505.72;5076379;28;20208;-78
2024/02/15 08:10:12;;;;;;;6.00;2.43;;;;;;;11.11;100.00;98506.25;5074982;28;20210;-78
2024/02/15 08:12:39;;;;;;;4.87;2.07;;;;;;;11.33;100.00;98498.59;5074804;28;20269;-77
2024/02/15 08:15:11;;;;;;;3.90;2.10;;;;;;;11.37;100.00;98490.34;5074947;28;20211;-78
2024/02/15 08:17:38;;;;;;;2.70;2.00;;;;;;;11.37;100.00;98494.81;5073376;28;20206;-78
2024/02/15 08:20:07;;;;;;;4.90;1.90;;;;;;;11.34;100.00;98500.28;5073125;28;20610;-78
2024/02/15 08:22:33;;;;;;;2.40;1.90;;;;;;;11.32;100.00;98502.19;5073538;28;20360;-79
2024/02/15 08:25:00;;;;;;;5.07;1.90;;;;;;;11.31;100.00;98500.50;5074134;28;20213;-78
2024/02/15 08:27:32;;;;;;;4.53;2.07;;;;;;;11.26;100.00;98499.97;5075187;28;20559;-78
2024/02/15 08:29:58;;;;;;;3.03;1.90;;;;;;;11.28;100.00;98495.41;5075951;28;20210;-78
2024/02/15 08:32:25;;;;;;;2.90;1.90;;;;;;;11.26;100.00;98492.03;5074371;28;20237;-77
2024/02/15 08:34:52;;;;;;;2.90;2.30;;;;;;;11.33;100.00;98493.31;5071806;28;20211;-77
2024/02/15 08:37:19;;;;;;;2.40;2.00;;;;;;;11.34;100.00;98485.28;5071487;28;20214;-78
2024/02/15 08:39:45;;;;;;;3.92;2.28;;;;;;;11.37;100.00;98485.06;5072946;28;20430;-79
2024/02/15 08:42:12;;;;;;;3.97;2.10;;;;;;;11.44;100.00;98477.56;5069901;28;20278;-76
2024/02/15 08:44:40;;;;;;;3.70;2.27;;;;;;;11.50;100.00;98479.81;5070675;28;20218;-76
2024/02/15 08:47:07;;;;;;;4.10;2.53;;;;;;;11.57;100.00;98470.50;5070917;28;20293;-78
2024/02/15 08:49:33;;;;;;;3.33;2.17;;;;;;;11.58;100.00;98467.78;5070393;28;20224;-75
2024/02/15 08:52:00;;;;;;;3.23;2.23;;;;;;;11.62;100.00;98457.84;5070806;28;20235;-78
2024/02/15 08:54:26;;;;;;;3.67;2.00;;;;;;;11.69;100.00;98456.44;5071234;28;20203;-76
2024/02/15 08:56:53;;;;;;;3.90;2.20;;;;;;;11.68;100.00;98446.81;5074093;28;20206;-79
2024/02/15 08:59:20;;;;;;;4.17;1.87;;;;;;;11.67;100.00;98445.13;5073140;28;20207;-81
2024/02/15 09:01:48;;;;;;;2.50;1.80;;;;;;;11.74;100.00;98441.09;5071181;28;20438;-77
2024/02/15 09:04:14;;;;;;;3.10;1.80;;;;;;;11.70;100.00;98437.81;5070993;28;20221;-77
2024/02/15 09:06:41;;;;;;;2.40;1.70;;;;;;;11.72;100.00;98445.63;5075404;28;20230;-77
2024/02/15 09:09:07;;;;;;;2.90;1.77;;;;;;;11.64;100.00;98440.03;5075479;28;20570;-77
2024/02/15 09:11:34;;;;;;;4.37;1.80;;;;;;;11.60;100.00;98443.81;5075561;28;20238;-77
2024/02/15 09:14:01;;;;;;;2.83;1.90;;;;;;;11.57;100.00;98439.56;5075800;28;20215;-77
2024/02/15 09:16:28;;;;;;;2.47;1.93;;;;;;;11.53;100.00;98447.81;5075543;28;20203;-77
2024/02/15 09:18:56;;;;;;;4.67;2.00;;;;;;;11.49;100.00;98454.28;5075295;28;20227;-77
2024/02/15 09:21:24;;;;;;;3.63;1.90;;;;;;;11.48;100.00;98455.22;5075781;28;20595;-77
2024/02/15 09:23:50;;;;;;;2.63;1.70;;;;;;;11.45;100.00;98452.78;5083094;28;20602;-80
2024/02/15 09:26:19;;;;;;;4.83;2.00;;;;;;;11.42;100.00;98451.19;5088233;28;20230;-80
2024/02/15 09:28:45;;;;;;;5.83;2.23;;;;;;;11.40;100.00;98455.75;5089636;28;20212;-81
2024/02/15 09:31:16;;;;;;;2.47;1.90;;;;;;;11.38;100.00;98459.47;5088741;28;20211;-79
2024/02/15 09:33:42;;;;;;;2.40;1.93;;;;;;;11.41;100.00;98459.22;5089346;28;20230;-79
2024/02/15 09:36:12;;;;;;;2.77;2.20;;;;;;;11.44;100.00;98459.03;5088248;28;20556;-79
2024/02/15 09:38:38;;;;;;;6.00;2.40;;;;;;;11.59;100.00;98455.38;5088581;28;20253;-79
2024/02/15 09:41:07;;;;;;;2.67;2.27;;;;;;;11.71;100.00;98441.28;5080398;28;20222;-78
2024/02/15 09:43:33;;;;;;;2.43;1.90;;;;;;;11.78;100.00;98438.13;5075843;28;20204;-77
2024/02/15 09:46:04;;;;;;;3.53;2.10;;;;;;;11.87;100.00;98442.78;5075032;28;20216;-78
2024/02/15 09:48:31;;;;;;;3.47;1.80;;;;;;;11.94;100.00;98432.63;5076205;28;20234;-77
2024/02/15 09:50:58;;;;;;;6.10;2.20;;;;;;;12.06;100.00;98427.31;5078194;28;20284;-77
2024/02/15 09:53:28;;;;;;;3.77;1.97;;;;;;;12.07;100.00;98422.84;5076331;28;20227;-77
2024/02/15 09:55:55;;;;;;;5.63;2.37;;;;;;;12.13;100.00;98425.94;5075364;28;20214;-77
2024/02/15 09:58:22;;;;;;;2.50;1.93;;;;;;;12.18;99.76;98421.13;5076006;28;20211;-78
2024/02/15 10:00:49;;;;;;;4.67;2.23;;;;;;;12.39;99.99;98424.03;5074858;28;20223;-76
2024/02/15 10:03:19;;;;;;;3.10;1.57;;;;;;;12.36;98.72;98419.81;5074562;28;20238;-77
2024/02/15 10:05:49;;;;;;;3.23;1.90;;;;;;;12.57;97.93;98412.13;5074815;28;20547;-77
2024/02/15 10:08:16;;;;;;;2.83;1.77;;;;;;;12.47;96.92;98411.09;5074310;28;20219;-77
2024/02/15 10:10:45;;;;;;;2.97;1.77;;;;;;;12.49;96.73;98403.88;5074603;28;20659;-77
2024/02/15 10:13:14;;;;;;;2.00;1.43;;;;;;;12.66;94.94;98391.06;5074423;28;20232;-77
2024/02/15 10:15:41;;;;;;;3.00;1.70;;;;;;;12.67;95.08;98394.59;5073538;28;20265;-77
2024/02/15 10:18:11;;;;;;;3.43;2.47;;;;;;;12.86;94.15;98389.63;5073752;28;20209;-77
2024/02/15 10:20:38;;;;;;;3.13;1.90;;;;;;;12.81;95.34;98394.41;5074280;28;20211;-77
2024/02/15 10:23:11;;;;;;;2.87;1.37;;;;;;;12.87;94.33;98388.66;5075840;28;20265;-78
2024/02/15 10:25:36;;;;;;;1.90;1.43;;;;;;;12.87;93.84;98380.69;5078384;28;20204;-78
2024/02/15 10:28:06;;;;;;;3.50;1.80;;;;;;;12.95;93.13;98365.94;5078728;28;20214;-79
2024/02/15 10:30:34;;;;;;;2.67;1.50;;;;;;;13.05;93.71;98385.53;5077571;28;20690;-77
2024/02/15 10:33:01;;;;;;;1.97;1.40;;;;;;;13.09;93.33;98372.88;5078930;28;20321;-78
2024/02/15 10:35:29;;;;;;;3.33;1.73;;;;;;;13.33;93.90;98373.66;5077068;28;20683;-79
2024/02/15 10:38:08;;;;;;;2.73;1.30;;;;;;;13.45;91.10;98354.13;5077027;28;20218;-78
2024/02/15 10:40:35;;;;;;;1.60;1.43;;;;;;;13.53;91.00;98354.38;5078315;28;20243;-78
2024/02/15 10:43:05;;;;;;;3.40;1.60;;;;;;;13.49;90.08;98348.47;5075871;28;20236;-77
2024/02/15 10:45:32;;;;;;;2.37;1.50;;;;;;;13.45;89.92;98351.47;5073720;28;20212;-76
2024/02/15 10:47:59;;;;;;;3.70;2.27;;;;;;;13.49;89.54;98344.94;5074174;28;20703;-77
2024/02/15 10:50:26;;;;;;;2.73;1.60;;;;;;;13.58;90.58;98354.88;5073630;28;20658;-79
2024/02/15 10:52:55;;;;;;;3.87;2.17;;;;;;;13.64;89.81;98346.44;5073344;28;20240;-76
2024/02/15 10:55:32;;;;;;;3.67;1.67;;;;;;;13.76;90.72;98354.25;5073509;28;20212;-77
2024/02/15 10:58:03;;;;;;;3.77;1.80;;;;;;;14.03;90.31;98351.25;5073345;28;20273;-77
2024/02/15 11:00:37;;;;;;;1.77;1.40;;;;;;;14.02;87.20;98333.63;5073557;28;20215;-77
2024/02/15 11:03:06;;;;;;;2.67;1.37;;;;;;;14.00;86.98;98324.94;5073447;28;20225;-77
2024/02/15 11:05:35;;;;;;;3.30;1.30;;;;;;;14.07;85.18;98315.50;5073392;28;20546;-77
2024/02/15 11:08:04;;;;;;;3.70;1.30;;;;;;;14.21;86.57;98328.53;5073661;28;20278;-77
2024/02/15 11:10:31;;;;;;;2.83;1.70;;;;;;;14.26;82.33;98300.63;5076466;28;20231;-78
2024/02/15 11:12:58;;;;;;;1.90;1.10;;;;;;;14.24;82.39;98302.56;5083359;28;20240;-78
2024/02/15 11:15:51;;;;;;;1.97;1.40;;;;;;;14.25;81.97;98293.59;5086273;28;20209;-79
2024/02/15 11:18:44;;;;;;;2.03;1.20;;;;;;;14.31;80.77;98292.28;5084420;28;20208;-80
2024/02/15 11:21:11;;;;;;;2.57;1.23;;;;;;;14.29;81.08;98288.91;5087969;28;20451;-81
2024/02/15 11:23:37;;;;;;;4.57;1.10;;;;;;;14.34;81.06;98290.22;5087991;28;20208;-81
2024/02/15 11:26:05;;;;;;;2.40;1.50;;;;;;;14.57;82.08;98283.00;5086886;28;20208;-78
2024/02/15 11:28:50;;;;;;;2.93;0.97;;;;;;;14.61;81.36;98279.13;5086957;28;20208;-78
2024/02/15 11:31:50;;;;;;;2.90;1.30;;;;;;;14.78;82.17;98287.38;5095575;28;20268;-77
2024/02/15 11:34:49;;;;;;;2.37;1.07;;;;;;;14.77;78.29;98253.75;5096142;28;20324;-77
2024/02/15 11:37:53;;;;;;;1.23;0.80;;;;;;;14.93;75.89;98243.53;5085178;28;20216;-77
2024/02/15 11:40:22;;;;;;;2.00;0.80;;;;;;;15.06;73.55;98227.34;5071827;28;20221;-77
2024/02/15 11:42:49;;;;;;;1.20;0.73;;;;;;;15.05;70.61;98209.69;5071755;28;20225;-77
2024/02/15 11:45:19;;;;;;;1.33;0.90;;;;;;;15.00;71.81;98222.53;5072376;28;20216;-77
2024/02/15 11:47:50;;;;;;;1.30;0.77;;;;;;;15.09;72.28;98227.09;5072277;28;20221;-77